sensor_id;sensor_type;location;lat;lon;timestamp;pressure;altitude;pressure_sealevel;temperature
12430;BMP280;6279;42.192;24.326;2024-02-15T00:01:04;99420.50;;;8.87
12430;BMP280;6279;42.192;24.326;2024-02-15T00:03:30;99422.66;;;8.92
12430;BMP280;6279;42.192;24.326;2024-02-15T00:05:57;99426.34;;;8.89
12430;BMP280;6279;42.192;24.326;2024-02-15T00:08:22;99433.31;;;8.89
12430;BMP280;6279;42.192;24.326;2024-02-15T00:10:50;99432.81;;;8.85
12430;BMP280;6279;42.192;24.326;2024-02-15T00:13:15;99426.06;;;8.92
12430;BMP280;6279;42.192;24.326;2024-02-15T00:15:41;99424.69;;;8.98
12430;BMP280;6279;42.192;24.326;2024-02-15T00:18:06;99428.00;;;8.90
12430;BMP280;6279;42.192;24.326;2024-02-15T00:20:32;99428.94;;;8.89
12430;BMP280;6279;42.192;24.326;2024-02-15T00:22:59;99436.16;;;8.95
12430;BMP280;6279;42.192;24.326;2024-02-15T00:25:25;99426.06;;;8.92
12430;BMP280;6279;42.192;24.326;2024-02-15T00:27:51;99429.25;;;8.86
12430;BMP280;6279;42.192;24.326;2024-02-15T00:30:17;99427.91;;;8.82
12430;BMP280;6279;42.192;24.326;2024-02-15T00:32:42;99428.09;;;8.72
12430;BMP280;6279;42.192;24.326;2024-02-15T00:35:07;99428.69;;;8.66
12430;BMP280;6279;42.192;24.326;2024-02-15T00:37:37;99428.22;;;8.53
12430;BMP280;6279;42.192;24.326;2024-02-15T00:40:03;99424.16;;;8.51
12430;BMP280;6279;42.192;24.326;2024-02-15T00:42:29;99430.22;;;8.32
12430;BMP280;6279;42.192;24.326;2024-02-15T00:44:57;99431.38;;;8.21
12430;BMP280;6279;42.192;24.326;2024-02-15T00:47:22;99432.09;;;8.04
12430;BMP280;6279;42.192;24.326;2024-02-15T00:49:50;99424.47;;;8.03
12430;BMP280;6279;42.192;24.326;2024-02-15T00:52:16;99419.03;;;8.06
12430;BMP280;6279;42.192;24.326;2024-02-15T00:54:44;99425.53;;;8.00
12430;BMP280;6279;42.192;24.326;2024-02-15T00:57:09;99425.06;;;7.88
12430;BMP280;6279;42.192;24.326;2024-02-15T00:59:35;99423.69;;;7.84
12430;BMP280;6279;42.192;24.326;2024-02-15T01:02:01;99422.31;;;7.89
12430;BMP280;6279;42.192;24.326;2024-02-15T01:04:28;99424.50;;;7.93
12430;BMP280;6279;42.192;24.326;2024-02-15T01:06:53;99423.91;;;7.99
12430;BMP280;6279;42.192;24.326;2024-02-15T01:09:18;99419.16;;;8.04
12430;BMP280;6279;42.192;24.326;2024-02-15T01:11:51;99414.13;;;8.03
12430;BMP280;6279;42.192;24.326;2024-02-15T01:14:16;99422.72;;;7.94
12430;BMP280;6279;42.192;24.326;2024-02-15T01:16:42;99419.31;;;7.93
12430;BMP280;6279;42.192;24.326;2024-02-15T01:19:08;99422.56;;;7.95
12430;BMP280;6279;42.192;24.326;2024-02-15T01:21:34;99420.78;;;7.96
12430;BMP280;6279;42.192;24.326;2024-02-15T01:23:59;99417.16;;;7.89
12430;BMP280;6279;42.192;24.326;2024-02-15T01:26:29;99416.88;;;7.92
12430;BMP280;6279;42.192;24.326;2024-02-15T01:28:55;99418.22;;;7.87
12430;BMP280;6279;42.192;24.326;2024-02-15T01:31:20;99415.09;;;7.83
12430;BMP280;6279;42.192;24.326;2024-02-15T01:33:45;99431.63;;;7.73
12430;BMP280;6279;42.192;24.326;2024-02-15T01:36:15;99426.44;;;7.73
12430;BMP280;6279;42.192;24.326;2024-02-15T01:38:41;99423.44;;;7.77
12430;BMP280;6279;42.192;24.326;2024-02-15T01:41:07;99425.22;;;7.77
12430;BMP280;6279;42.192;24.326;2024-02-15T01:43:33;99435.19;;;7.72
12430;BMP280;6279;42.192;24.326;2024-02-15T01:45:59;99430.81;;;7.63
12430;BMP280;6279;42.192;24.326;2024-02-15T01:48:29;99435.19;;;7.63
12430;BMP280;6279;42.192;24.326;2024-02-15T01:50:55;99436.81;;;7.73
12430;BMP280;6279;42.192;24.326;2024-02-15T01:53:21;99437.06;;;7.79
12430;BMP280;6279;42.192;24.326;2024-02-15T01:55:46;99438.41;;;7.83
12430;BMP280;6279;42.192;24.326;2024-02-15T01:58:12;99443.59;;;7.83
12430;BMP280;6279;42.192;24.326;2024-02-15T02:00:37;99447.00;;;7.84
12430;BMP280;6279;42.192;24.326;2024-02-15T02:03:04;99440.69;;;7.95
12430;BMP280;6279;42.192;24.326;2024-02-15T02:05:30;99444.91;;;7.96
12430;BMP280;6279;42.192;24.326;2024-02-15T02:07:56;99443.00;;;7.98
12430;BMP280;6279;42.192;24.326;2024-02-15T02:10:25;99445.19;;;8.03
12430;BMP280;6279;42.192;24.326;2024-02-15T02:12:52;99443.41;;;8.03
12430;BMP280;6279;42.192;24.326;2024-02-15T02:15:18;99440.84;;;8.03
12430;BMP280;6279;42.192;24.326;2024-02-15T02:17:50;99447.91;;;8.10
12430;BMP280;6279;42.192;24.326;2024-02-15T02:20:16;99445.75;;;8.06
12430;BMP280;6279;42.192;24.326;2024-02-15T02:22:44;99458.97;;;8.03
12430;BMP280;6279;42.192;24.326;2024-02-15T02:25:11;99453.53;;;8.06
12430;BMP280;6279;42.192;24.326;2024-02-15T02:27:38;99448.72;;;8.11
12430;BMP280;6279;42.192;24.326;2024-02-15T02:30:15;99451.91;;;8.05
12430;BMP280;6279;42.192;24.326;2024-02-15T02:32:42;99453.78;;;8.03
12430;BMP280;6279;42.192;24.326;2024-02-15T02:35:08;99450.22;;;8.04
12430;BMP280;6279;42.192;24.326;2024-02-15T02:37:37;99457.75;;;8.07
12430;BMP280;6279;42.192;24.326;2024-02-15T02:40:04;99453.09;;;8.10
12430;BMP280;6279;42.192;24.326;2024-02-15T02:42:30;99461.28;;;8.06
12430;BMP280;6279;42.192;24.326;2024-02-15T02:44:55;99461.44;;;8.05
12430;BMP280;6279;42.192;24.326;2024-02-15T02:47:21;99461.56;;;7.94
12430;BMP280;6279;42.192;24.326;2024-02-15T02:49:47;99455.13;;;7.98
12430;BMP280;6279;42.192;24.326;2024-02-15T02:52:12;99468.91;;;7.98
12430;BMP280;6279;42.192;24.326;2024-02-15T02:54:38;99459.22;;;8.00
12430;BMP280;6279;42.192;24.326;2024-02-15T02:57:03;99463.06;;;7.96
12430;BMP280;6279;42.192;24.326;2024-02-15T02:59:33;99462.50;;;8.02
12430;BMP280;6279;42.192;24.326;2024-02-15T03:01:59;99459.22;;;8.00
12430;BMP280;6279;42.192;24.326;2024-02-15T03:04:25;99463.06;;;7.96
12430;BMP280;6279;42.192;24.326;2024-02-15T03:06:51;99456.38;;;8.03
12430;BMP280;6279;42.192;24.326;2024-02-15T03:09:18;99460.84;;;8.01
12430;BMP280;6279;42.192;24.326;2024-02-15T03:11:45;99466.03;;;8.01
12430;BMP280;6279;42.192;24.326;2024-02-15T03:14:11;99470.53;;;7.99
12430;BMP280;6279;42.192;24.326;2024-02-15T03:16:38;99473.13;;;7.99
12430;BMP280;6279;42.192;24.326;2024-02-15T03:19:03;99469.19;;;7.95
12430;BMP280;6279;42.192;24.326;2024-02-15T03:21:29;99464.16;;;7.94
12430;BMP280;6279;42.192;24.326;2024-02-15T03:23:55;99468.50;;;7.93
12430;BMP280;6279;42.192;24.326;2024-02-15T03:26:30;99481.75;;;7.90
12430;BMP280;6279;42.192;24.326;2024-02-15T03:29:05;99474.13;;;7.89
12430;BMP280;6279;42.192;24.326;2024-02-15T03:31:30;99483.81;;;7.87
12430;BMP280;6279;42.192;24.326;2024-02-15T03:33:57;99480.25;;;7.88
12430;BMP280;6279;42.192;24.326;2024-02-15T03:36:22;99474.94;;;7.89
12430;BMP280;6279;42.192;24.326;2024-02-15T03:38:48;99475.47;;;7.93
12430;BMP280;6279;42.192;24.326;2024-02-15T03:41:13;99466.06;;;7.83
12430;BMP280;6279;42.192;24.326;2024-02-15T03:43:39;99474.50;;;7.85
12430;BMP280;6279;42.192;24.326;2024-02-15T03:46:05;99471.53;;;7.80
12430;BMP280;6279;42.192;24.326;2024-02-15T03:48:32;99464.88;;;7.77
12430;BMP280;6279;42.192;24.326;2024-02-15T03:50:58;99470.75;;;7.70
12430;BMP280;6279;42.192;24.326;2024-02-15T03:53:23;99470.19;;;7.76
12430;BMP280;6279;42.192;24.326;2024-02-15T03:55:49;99472.78;;;7.76
12430;BMP280;6279;42.192;24.326;2024-02-15T03:58:18;99478.19;;;7.82
12430;BMP280;6279;42.192;24.326;2024-02-15T04:00:45;99482.16;;;7.77
12430;BMP280;6279;42.192;24.326;2024-02-15T04:03:10;99477.94;;;7.76
12430;BMP280;6279;42.192;24.326;2024-02-15T04:05:36;99478.72;;;7.86
12430;BMP280;6279;42.192;24.326;2024-02-15T04:08:01;99484.19;;;7.83
12430;BMP280;6279;42.192;24.326;2024-02-15T04:10:27;99485.84;;;7.74
12430;BMP280;6279;42.192;24.326;2024-02-15T04:12:52;99488.59;;;7.73
12430;BMP280;6279;42.192;24.326;2024-02-15T04:15:18;99484.34;;;7.81
12430;BMP280;6279;42.192;24.326;2024-02-15T04:17:44;99480.13;;;7.89
12430;BMP280;6279;42.192;24.326;2024-02-15T04:20:10;99480.22;;;7.97
12430;BMP280;6279;42.192;24.326;2024-02-15T04:22:37;99477.63;;;7.97
12430;BMP280;6279;42.192;24.326;2024-02-15T04:25:07;99485.00;;;7.92
12430;BMP280;6279;42.192;24.326;2024-02-15T04:27:34;99476.84;;;7.88
12430;BMP280;6279;42.192;24.326;2024-02-15T04:30:01;99481.75;;;7.90
12430;BMP280;6279;42.192;24.326;2024-02-15T04:32:28;99486.94;;;7.90
12430;BMP280;6279;42.192;24.326;2024-02-15T04:34:54;99487.59;;;7.83
12430;BMP280;6279;42.192;24.326;2024-02-15T04:37:19;99480.13;;;7.89
12430;BMP280;6279;42.192;24.326;2024-02-15T04:39:45;99486.34;;;7.96
12430;BMP280;6279;42.192;24.326;2024-02-15T04:42:12;99484.72;;;7.95
12430;BMP280;6279;42.192;24.326;2024-02-15T04:44:40;99488.16;;;8.05
12430;BMP280;6279;42.192;24.326;2024-02-15T04:47:06;99483.78;;;8.06
12430;BMP280;6279;42.192;24.326;2024-02-15T04:49:34;99487.72;;;8.00
12430;BMP280;6279;42.192;24.326;2024-02-15T04:52:03;99485.69;;;7.94
12430;BMP280;6279;42.192;24.326;2024-02-15T04:54:29;99497.09;;;8.01
12430;BMP280;6279;42.192;24.326;2024-02-15T04:56:54;99491.81;;;7.93
12430;BMP280;6279;42.192;24.326;2024-02-15T04:59:22;99492.88;;;8.00
12430;BMP280;6279;42.192;24.326;2024-02-15T05:01:51;99492.38;;;7.88
12430;BMP280;6279;42.192;24.326;2024-02-15T05:04:17;99499.06;;;7.90
12430;BMP280;6279;42.192;24.326;2024-02-15T05:06:43;99489.91;;;7.95
12430;BMP280;6279;42.192;24.326;2024-02-15T05:09:10;99492.63;;;7.94
12430;BMP280;6279;42.192;24.326;2024-02-15T05:11:39;99502.03;;;7.95
12430;BMP280;6279;42.192;24.326;2024-02-15T05:14:11;99496.31;;;7.91
12430;BMP280;6279;42.192;24.326;2024-02-15T05:16:37;99505.59;;;7.94
12430;BMP280;6279;42.192;24.326;2024-02-15T05:19:10;99509.28;;;7.91
12430;BMP280;6279;42.192;24.326;2024-02-15T05:21:38;99507.06;;;7.96
12430;BMP280;6279;42.192;24.326;2024-02-15T05:24:07;99509.28;;;8.10
12430;BMP280;6279;42.192;24.326;2024-02-15T05:26:32;99515.56;;;8.08
12430;BMP280;6279;42.192;24.326;2024-02-15T05:28:58;99520.72;;;8.08
12430;BMP280;6279;42.192;24.326;2024-02-15T05:31:23;99527.25;;;8.02
12430;BMP280;6279;42.192;24.326;2024-02-15T05:33:52;99523.03;;;8.10
12430;BMP280;6279;42.192;24.326;2024-02-15T05:36:18;99531.72;;;8.19
12430;BMP280;6279;42.192;24.326;2024-02-15T05:38:47;99532.44;;;8.11
12430;BMP280;6279;42.192;24.326;2024-02-15T05:41:13;99531.91;;;8.08
12430;BMP280;6279;42.192;24.326;2024-02-15T05:43:39;99537.63;;;8.11
12430;BMP280;6279;42.192;24.326;2024-02-15T05:46:07;99544.41;;;8.22
12430;BMP280;6279;42.192;24.326;2024-02-15T05:48:34;99538.69;;;8.28
12430;BMP280;6279;42.192;24.326;2024-02-15T05:51:01;99538.78;;;8.35
12430;BMP280;6279;42.192;24.326;2024-02-15T05:53:26;99543.56;;;8.31
12430;BMP280;6279;42.192;24.326;2024-02-15T05:55:51;99539.44;;;8.37
12430;BMP280;6279;42.192;24.326;2024-02-15T05:58:17;99542.72;;;8.39
12430;BMP280;6279;42.192;24.326;2024-02-15T06:00:43;99552.00;;;8.42
12430;BMP280;6279;42.192;24.326;2024-02-15T06:03:12;99554.41;;;8.53
12430;BMP280;6279;42.192;24.326;2024-02-15T06:05:38;99553.88;;;8.49
12430;BMP280;6279;42.192;24.326;2024-02-15T06:08:04;99555.66;;;8.49
12430;BMP280;6279;42.192;24.326;2024-02-15T06:10:29;99554.94;;;8.56
12430;BMP280;6279;42.192;24.326;2024-02-15T06:12:56;99566.84;;;8.49
12430;BMP280;6279;42.192;24.326;2024-02-15T06:15:22;99562.34;;;8.51
12430;BMP280;6279;42.192;24.326;2024-02-15T06:17:49;99564.50;;;8.55
12430;BMP280;6279;42.192;24.326;2024-02-15T06:20:15;99559.59;;;8.62
12430;BMP280;6279;42.192;24.326;2024-02-15T06:22:43;99563.53;;;8.66
12430;BMP280;6279;42.192;24.326;2024-02-15T06:25:08;99567.47;;;8.70
12430;BMP280;6279;42.192;24.326;2024-02-15T06:27:36;99572.47;;;8.80
12430;BMP280;6279;42.192;24.326;2024-02-15T06:30:06;99570.19;;;8.77
12430;BMP280;6279;42.192;24.326;2024-02-15T06:32:50;99565.16;;;8.93
12430;BMP280;6279;42.192;24.326;2024-02-15T06:35:34;99572.03;;;8.85
12430;BMP280;6279;42.192;24.326;2024-02-15T06:38:18;99577.75;;;8.88
12430;BMP280;6279;42.192;24.326;2024-02-15T06:41:02;99562.47;;;8.85
12430;BMP280;6279;42.192;24.326;2024-02-15T06:43:28;99571.81;;;8.78
12430;BMP280;6279;42.192;24.326;2024-02-15T06:45:54;99578.72;;;8.87
12430;BMP280;6279;42.192;24.326;2024-02-15T06:48:20;99580.19;;;8.90
12430;BMP280;6279;42.192;24.326;2024-02-15T06:50:49;99574.19;;;8.89
12430;BMP280;6279;42.192;24.326;2024-02-15T06:53:14;99588.13;;;8.88
12430;BMP280;6279;42.192;24.326;2024-02-15T06:55:40;99579.38;;;8.89
12430;BMP280;6279;42.192;24.326;2024-02-15T06:58:16;99575.84;;;8.90
12430;BMP280;6279;42.192;24.326;2024-02-15T07:00:43;99587.00;;;9.00
12430;BMP280;6279;42.192;24.326;2024-02-15T07:03:08;99585.38;;;8.99
12430;BMP280;6279;42.192;24.326;2024-02-15T07:05:34;99580.69;;;9.02
12430;BMP280;6279;42.192;24.326;2024-02-15T07:08:00;99582.00;;;9.16
12430;BMP280;6279;42.192;24.326;2024-02-15T07:10:25;99586.31;;;9.24
12430;BMP280;6279;42.192;24.326;2024-02-15T07:12:51;99589.88;;;9.23
12430;BMP280;6279;42.192;24.326;2024-02-15T07:15:17;99584.16;;;9.20
12430;BMP280;6279;42.192;24.326;2024-02-15T07:17:42;99593.44;;;9.22
12430;BMP280;6279;42.192;24.326;2024-02-15T07:20:10;99589.06;;;9.23
12430;BMP280;6279;42.192;24.326;2024-02-15T07:22:36;99601.19;;;9.32
12430;BMP280;6279;42.192;24.326;2024-02-15T07:25:04;99602.00;;;9.32
12430;BMP280;6279;42.192;24.326;2024-02-15T07:27:30;99601.78;;;9.43
12430;BMP280;6279;42.192;24.326;2024-02-15T07:29:55;99587.78;;;9.53
12430;BMP280;6279;42.192;24.326;2024-02-15T07:32:21;99593.97;;;9.69
12430;BMP280;6279;42.192;24.326;2024-02-15T07:34:47;99594.94;;;9.68
12430;BMP280;6279;42.192;24.326;2024-02-15T07:37:13;99582.63;;;9.87
12430;BMP280;6279;42.192;24.326;2024-02-15T07:39:40;99585.13;;;9.80
12430;BMP280;6279;42.192;24.326;2024-02-15T07:42:05;99586.53;;;9.74
12430;BMP280;6279;42.192;24.326;2024-02-15T07:44:34;99599.97;;;9.70
12430;BMP280;6279;42.192;24.326;2024-02-15T07:47:02;99597.69;;;9.67
12430;BMP280;6279;42.192;24.326;2024-02-15T07:49:27;99601.91;;;9.68
12430;BMP280;6279;42.192;24.326;2024-02-15T07:51:53;99589.13;;;9.57
12430;BMP280;6279;42.192;24.326;2024-02-15T07:54:19;99599.16;;;9.69
12430;BMP280;6279;42.192;24.326;2024-02-15T07:56:47;99602.72;;;9.68
12430;BMP280;6279;42.192;24.326;2024-02-15T07:59:16;99595.66;;;9.78
12430;BMP280;6279;42.192;24.326;2024-02-15T08:01:42;99603.22;;;9.72
12430;BMP280;6279;42.192;24.326;2024-02-15T08:04:09;99593.00;;;9.70
12430;BMP280;6279;42.192;24.326;2024-02-15T08:06:34;99597.72;;;9.84
12430;BMP280;6279;42.192;24.326;2024-02-15T08:09:02;99597.16;;;9.98
12430;BMP280;6279;42.192;24.326;2024-02-15T08:11:30;99594.25;;;10.01
12430;BMP280;6279;42.192;24.326;2024-02-15T08:13:55;99591.16;;;10.14
12430;BMP280;6279;42.192;24.326;2024-02-15T08:16:25;99588.25;;;10.17
12430;BMP280;6279;42.192;24.326;2024-02-15T08:18:52;99591.44;;;10.11
12430;BMP280;6279;42.192;24.326;2024-02-15T08:21:29;99596.50;;;9.96
12430;BMP280;6279;42.192;24.326;2024-02-15T08:23:58;99580.25;;;9.94
12430;BMP280;6279;42.192;24.326;2024-02-15T08:26:24;99588.19;;;10.09
12430;BMP280;6279;42.192;24.326;2024-02-15T08:28:49;99588.63;;;10.22
12430;BMP280;6279;42.192;24.326;2024-02-15T08:31:15;99585.88;;;10.24
12430;BMP280;6279;42.192;24.326;2024-02-15T08:33:41;99590.28;;;10.48
12430;BMP280;6279;42.192;24.326;2024-02-15T08:36:08;99589.22;;;10.58
12430;BMP280;6279;42.192;24.326;2024-02-15T08:38:35;99592.94;;;10.56
12430;BMP280;6279;42.192;24.326;2024-02-15T08:41:02;99589.03;;;10.85
12430;BMP280;6279;42.192;24.326;2024-02-15T08:43:29;99594.22;;;11.10
12430;BMP280;6279;42.192;24.326;2024-02-15T08:45:58;99596.63;;;11.44
12430;BMP280;6279;42.192;24.326;2024-02-15T08:48:23;99591.53;;;12.06
12430;BMP280;6279;42.192;24.326;2024-02-15T08:50:49;99583.66;;;12.93
12430;BMP280;6279;42.192;24.326;2024-02-15T08:53:14;99580.63;;;13.79
12430;BMP280;6279;42.192;24.326;2024-02-15T08:55:40;99583.28;;;14.73
12430;BMP280;6279;42.192;24.326;2024-02-15T08:58:06;99566.91;;;15.56
12430;BMP280;6279;42.192;24.326;2024-02-15T09:00:31;99572.97;;;15.57
12430;BMP280;6279;42.192;24.326;2024-02-15T09:02:57;99577.56;;;15.55
12430;BMP280;6279;42.192;24.326;2024-02-15T09:05:22;99575.44;;;15.79
12430;BMP280;6279;42.192;24.326;2024-02-15T09:07:48;99570.19;;;15.79
12430;BMP280;6279;42.192;24.326;2024-02-15T09:10:14;99570.91;;;16.07
12430;BMP280;6279;42.192;24.326;2024-02-15T09:12:43;99563.72;;;16.16
12430;BMP280;6279;42.192;24.326;2024-02-15T09:15:09;99567.63;;;16.46
12430;BMP280;6279;42.192;24.326;2024-02-15T09:17:36;99562.59;;;16.78
12430;BMP280;6279;42.192;24.326;2024-02-15T09:20:11;99557.09;;;18.75
12430;BMP280;6279;42.192;24.326;2024-02-15T09:22:57;99541.78;;;21.56
12430;BMP280;6279;42.192;24.326;2024-02-15T09:25:23;99563.03;;;21.96
12430;BMP280;6279;42.192;24.326;2024-02-15T09:27:49;99558.50;;;23.10
12430;BMP280;6279;42.192;24.326;2024-02-15T09:30:16;99559.47;;;24.37
12430;BMP280;6279;42.192;24.326;2024-02-15T09:32:42;99556.47;;;25.35
12430;BMP280;6279;42.192;24.326;2024-02-15T09:35:11;99555.22;;;25.84
12430;BMP280;6279;42.192;24.326;2024-02-15T09:37:44;99557.09;;;25.84
12430;BMP280;6279;42.192;24.326;2024-02-15T09:40:11;99558.50;;;24.91
12430;BMP280;6279;42.192;24.326;2024-02-15T09:42:37;99551.41;;;25.97
12430;BMP280;6279;42.192;24.326;2024-02-15T09:45:05;99538.22;;;26.73
12430;BMP280;6279;42.192;24.326;2024-02-15T09:47:37;99537.91;;;26.34
12430;BMP280;6279;42.192;24.326;2024-02-15T09:50:07;99536.72;;;26.86
12430;BMP280;6279;42.192;24.326;2024-02-15T09:52:34;99529.44;;;26.77
12430;BMP280;6279;42.192;24.326;2024-02-15T09:55:09;99528.88;;;26.40
12430;BMP280;6279;42.192;24.326;2024-02-15T09:57:39;99524.41;;;27.21
12430;BMP280;6279;42.192;24.326;2024-02-15T10:00:05;99514.16;;;27.69
12430;BMP280;6279;42.192;24.326;2024-02-15T10:02:34;99507.06;;;28.03
12430;BMP280;6279;42.192;24.326;2024-02-15T10:05:01;99498.25;;;28.13
12430;BMP280;6279;42.192;24.326;2024-02-15T10:07:27;99513.19;;;27.94
12430;BMP280;6279;42.192;24.326;2024-02-15T10:09:53;99498.91;;;27.54
12430;BMP280;6279;42.192;24.326;2024-02-15T10:12:19;99504.03;;;27.15
12430;BMP280;6279;42.192;24.326;2024-02-15T10:14:55;99493.34;;;27.10
12430;BMP280;6279;42.192;24.326;2024-02-15T10:17:21;99480.97;;;26.54
12430;BMP280;6279;42.192;24.326;2024-02-15T10:20:06;99484.41;;;26.85
12430;BMP280;6279;42.192;24.326;2024-02-15T10:22:31;99475.91;;;26.98
12430;BMP280;6279;42.192;24.326;2024-02-15T10:25:13;99471.50;;;26.73
12430;BMP280;6279;42.192;24.326;2024-02-15T10:27:40;99462.06;;;27.06
12430;BMP280;6279;42.192;24.326;2024-02-15T10:30:19;99450.59;;;27.75
12430;BMP280;6279;42.192;24.326;2024-02-15T10:32:45;99445.53;;;27.79
12430;BMP280;6279;42.192;24.326;2024-02-15T10:35:19;99442.63;;;28.39
12430;BMP280;6279;42.192;24.326;2024-02-15T10:37:44;99437.50;;;28.52
12430;BMP280;6279;42.192;24.326;2024-02-15T10:40:10;99433.25;;;28.27
12430;BMP280;6279;42.192;24.326;2024-02-15T10:42:40;99431.34;;;27.88
12430;BMP280;6279;42.192;24.326;2024-02-15T10:45:07;99436.38;;;27.55
12430;BMP280;6279;42.192;24.326;2024-02-15T10:47:37;99426.22;;;27.67
12430;BMP280;6279;42.192;24.326;2024-02-15T10:50:04;99429.16;;;27.61
12430;BMP280;6279;42.192;24.326;2024-02-15T10:52:31;99431.56;;;26.92
12430;BMP280;6279;42.192;24.326;2024-02-15T10:55:05;99423.16;;;26.29
12430;BMP280;6279;42.192;24.326;2024-02-15T10:57:37;99417.59;;;26.35
12430;BMP280;6279;42.192;24.326;2024-02-15T11:00:05;99409.88;;;26.79
12430;BMP280;6279;42.192;24.326;2024-02-15T11:02:56;99411.91;;;26.58
12430;BMP280;6279;42.192;24.326;2024-02-15T11:05:33;99401.13;;;26.07
12430;BMP280;6279;42.192;24.326;2024-02-15T11:08:06;99391.22;;;26.03
12430;BMP280;6279;42.192;24.326;2024-02-15T11:10:34;99389.25;;;26.24
12430;BMP280;6279;42.192;24.326;2024-02-15T11:13:00;99381.59;;;26.38
12430;BMP280;6279;42.192;24.326;2024-02-15T11:18:02;99380.06;;;25.75
12430;BMP280;6279;42.192;24.326;2024-02-15T11:23:02;99371.50;;;25.21
12430;BMP280;6279;42.192;24.326;2024-02-15T11:25:38;99365.84;;;24.71
12430;BMP280;6279;42.192;24.326;2024-02-15T11:30:49;99359.78;;;24.38
12430;BMP280;6279;42.192;24.326;2024-02-15T11:33:25;99353.16;;;24.19
12430;BMP280;6279;42.192;24.326;2024-02-15T11:36:10;99351.78;;;23.69
12430;BMP280;6279;42.192;24.326;2024-02-15T11:38:37;99352.66;;;23.58
12430;BMP280;6279;42.192;24.326;2024-02-15T11:41:07;99344.34;;;23.38
12430;BMP280;6279;42.192;24.326;2024-02-15T11:46:17;99338.09;;;22.40
12430;BMP280;6279;42.192;24.326;2024-02-15T11:48:50;99341.59;;;21.44
12430;BMP280;6279;42.192;24.326;2024-02-15T11:51:35;99346.50;;;20.54
12430;BMP280;6279;42.192;24.326;2024-02-15T11:54:09;99344.00;;;20.41
12430;BMP280;6279;42.192;24.326;2024-02-15T11:59:10;99342.56;;;19.55
12430;BMP280;6279;42.192;24.326;2024-02-15T12:01:44;99334.72;;;19.19
12430;BMP280;6279;42.192;24.326;2024-02-15T12:04:28;99336.56;;;19.12
12430;BMP280;6279;42.192;24.326;2024-02-15T12:07:14;99328.34;;;19.02
12430;BMP280;6279;42.192;24.326;2024-02-15T12:10:01;99338.16;;;18.89
12430;BMP280;6279;42.192;24.326;2024-02-15T12:12:51;99332.31;;;18.81
12430;BMP280;6279;42.192;24.326;2024-02-15T12:15:35;99322.06;;;18.60
12430;BMP280;6279;42.192;24.326;2024-02-15T12:18:20;99333.06;;;18.44
12430;BMP280;6279;42.192;24.326;2024-02-15T12:21:04;99333.41;;;17.92
12430;BMP280;6279;42.192;24.326;2024-02-15T12:23:31;99325.91;;;17.45
12430;BMP280;6279;42.192;24.326;2024-02-15T12:26:00;99329.03;;;16.89
12430;BMP280;6279;42.192;24.326;2024-02-15T12:28:25;99325.72;;;16.62
12430;BMP280;6279;42.192;24.326;2024-02-15T12:30:56;99338.16;;;16.41
12430;BMP280;6279;42.192;24.326;2024-02-15T12:33:25;99326.63;;;16.29
12430;BMP280;6279;42.192;24.326;2024-02-15T12:36:06;99339.25;;;16.20
12430;BMP280;6279;42.192;24.326;2024-02-15T12:38:31;99331.78;;;16.17
12430;BMP280;6279;42.192;24.326;2024-02-15T12:40:59;99338.53;;;16.32
12430;BMP280;6279;42.192;24.326;2024-02-15T12:43:25;99330.53;;;16.46
12430;BMP280;6279;42.192;24.326;2024-02-15T12:45:51;99339.63;;;16.50
12430;BMP280;6279;42.192;24.326;2024-02-15T12:48:18;99330.88;;;16.43
12430;BMP280;6279;42.192;24.326;2024-02-15T12:50:44;99325.53;;;16.64
12430;BMP280;6279;42.192;24.326;2024-02-15T12:53:09;99334.38;;;16.50
12430;BMP280;6279;42.192;24.326;2024-02-15T12:55:36;99331.13;;;16.48
12430;BMP280;6279;42.192;24.326;2024-02-15T12:58:04;99321.31;;;16.69
12430;BMP280;6279;42.192;24.326;2024-02-15T13:00:33;99327.31;;;16.57
12430;BMP280;6279;42.192;24.326;2024-02-15T13:03:05;99326.53;;;16.63
12430;BMP280;6279;42.192;24.326;2024-02-15T13:05:34;99344.69;;;16.51
12430;BMP280;6279;42.192;24.326;2024-02-15T13:08:01;99335.69;;;16.27
12430;BMP280;6279;42.192;24.326;2024-02-15T13:10:28;99342.84;;;16.46
12430;BMP280;6279;42.192;24.326;2024-02-15T13:12:57;99330.53;;;16.46
12430;BMP280;6279;42.192;24.326;2024-02-15T13:15:23;99322.06;;;16.57
12430;BMP280;6279;42.192;24.326;2024-02-15T13:17:53;99333.78;;;16.54
12430;BMP280;6279;42.192;24.326;2024-02-15T13:20:22;99331.75;;;16.56
12430;BMP280;6279;42.192;24.326;2024-02-15T13:25:28;99327.16;;;16.65
12430;BMP280;6279;42.192;24.326;2024-02-15T13:27:55;99333.03;;;16.79
12430;BMP280;6279;42.192;24.326;2024-02-15T13:30:21;99325.53;;;16.64
12430;BMP280;6279;42.192;24.326;2024-02-15T13:32:52;99332.06;;;16.28
12430;BMP280;6279;42.192;24.326;2024-02-15T13:35:17;99329.53;;;16.53
12430;BMP280;6279;42.192;24.326;2024-02-15T13:37:49;99327.16;;;16.71
12430;BMP280;6279;42.192;24.326;2024-02-15T13:40:15;99327.38;;;16.69
12430;BMP280;6279;42.192;24.326;2024-02-15T13:42:45;99327.38;;;16.69
12430;BMP280;6279;42.192;24.326;2024-02-15T13:45:16;99324.16;;;16.80
12430;BMP280;6279;42.192;24.326;2024-02-15T13:47:45;99333.41;;;16.64
12430;BMP280;6279;42.192;24.326;2024-02-15T13:50:14;99348.31;;;16.50
12430;BMP280;6279;42.192;24.326;2024-02-15T13:52:43;99339.03;;;16.54
12430;BMP280;6279;42.192;24.326;2024-02-15T13:55:14;99341.47;;;16.56
12430;BMP280;6279;42.192;24.326;2024-02-15T13:57:48;99337.69;;;16.71
12430;BMP280;6279;42.192;24.326;2024-02-15T14:00:18;99336.59;;;16.46
12430;BMP280;6279;42.192;24.326;2024-02-15T14:02:53;99340.09;;;16.66
12430;BMP280;6279;42.192;24.326;2024-02-15T14:05:26;99338.88;;;16.68
12430;BMP280;6279;42.192;24.326;2024-02-15T14:08:01;99346.41;;;16.84
12430;BMP280;6279;42.192;24.326;2024-02-15T14:10:29;99341.09;;;16.65
12430;BMP280;6279;42.192;24.326;2024-02-15T14:12:54;99350.66;;;16.39
12430;BMP280;6279;42.192;24.326;2024-02-15T14:15:21;99348.09;;;16.46
12430;BMP280;6279;42.192;24.326;2024-02-15T14:17:47;99349.97;;;16.24
12430;BMP280;6279;42.192;24.326;2024-02-15T14:20:13;99342.50;;;16.22
12430;BMP280;6279;42.192;24.326;2024-02-15T14:22:49;99359.75;;;16.03
12430;BMP280;6279;42.192;24.326;2024-02-15T14:25:18;99351.09;;;15.82
12430;BMP280;6279;42.192;24.326;2024-02-15T14:27:44;99359.22;;;15.87
12430;BMP280;6279;42.192;24.326;2024-02-15T14:30:10;99356.34;;;15.82
12430;BMP280;6279;42.192;24.326;2024-02-15T14:32:54;99353.94;;;15.81
12430;BMP280;6279;42.192;24.326;2024-02-15T14:35:35;99352.63;;;15.71
12430;BMP280;6279;42.192;24.326;2024-02-15T14:38:11;99358.97;;;15.56